sensor_id;sensor_type;location;lat;lon;timestamp;pressure;altitude;pressure_sealevel;temperature;humidity
28921;BME280;16035;53.594;9.952;2023-07-30T00:01:25;100613.75;;;18.66;76.53
28921;BME280;16035;53.594;9.952;2023-07-30T00:03:25;100609.09;;;18.66;76.55
28921;BME280;16035;53.594;9.952;2023-07-30T00:05:26;100601.66;;;18.67;76.83
28921;BME280;16035;53.594;9.952;2023-07-30T00:07:26;100610.19;;;18.65;76.59
28921;BME280;16035;53.594;9.952;2023-07-30T00:09:26;100620.09;;;18.66;76.67
28921;BME280;16035;53.594;9.952;2023-07-30T00:11:27;100620.41;;;18.65;76.79
28921;BME280;16035;53.594;9.952;2023-07-30T00:13:27;100609.41;;;18.65;76.79
28921;BME280;16035;53.594;9.952;2023-07-30T00:15:27;100612.16;;;18.65;76.63
28921;BME280;16035;53.594;9.952;2023-07-30T00:17:28;100609.72;;;18.63;76.89
28921;BME280;16035;53.594;9.952;2023-07-30T00:19:28;100617.97;;;18.63;76.84
28921;BME280;16035;53.594;9.952;2023-07-30T00:21:28;100621.06;;;18.62;77.13
28921;BME280;16035;53.594;9.952;2023-07-30T00:23:29;100620.22;;;18.61;77.12
28921;BME280;16035;53.594;9.952;2023-07-30T00:25:29;100616.38;;;18.62;77.17
28921;BME280;16035;53.594;9.952;2023-07-30T00:27:29;100620.22;;;18.61;77.04
28921;BME280;16035;53.594;9.952;2023-07-30T00:29:29;100623.13;;;18.56;77.07
28921;BME280;16035;53.594;9.952;2023-07-30T00:31:30;100621.03;;;18.53;76.89
28921;BME280;16035;53.594;9.952;2023-07-30T00:33:30;100619.69;;;18.51;76.93
28921;BME280;16035;53.594;9.952;2023-07-30T00:35:30;100620.31;;;18.48;77.09
28921;BME280;16035;53.594;9.952;2023-07-30T00:37:31;100629.72;;;18.47;77.10
28921;BME280;16035;53.594;9.952;2023-07-30T00:39:31;100638.91;;;18.42;77.10
28921;BME280;16035;53.594;9.952;2023-07-30T00:41:31;100623.03;;;18.39;76.97
28921;BME280;16035;53.594;9.952;2023-07-30T00:43:32;100614.78;;;18.39;77.10
28921;BME280;16035;53.594;9.952;2023-07-30T00:45:32;100599.59;;;18.41;77.11
28921;BME280;16035;53.594;9.952;2023-07-30T00:47:32;100598.47;;;18.42;77.38
28921;BME280;16035;53.594;9.952;2023-07-30T00:49:33;100598.78;;;18.41;77.29
28921;BME280;16035;53.594;9.952;2023-07-30T00:51:33;100596.84;;;18.41;77.17
28921;BME280;16035;53.594;9.952;2023-07-30T00:53:34;100581.47;;;18.40;77.17
28921;BME280;16035;53.594;9.952;2023-07-30T00:55:36;100584.53;;;18.39;77.36
28921;BME280;16035;53.594;9.952;2023-07-30T00:57:37;100600.38;;;18.33;77.13
28921;BME280;16035;53.594;9.952;2023-07-30T00:59:37;100589.34;;;18.33;77.34
28921;BME280;16035;53.594;9.952;2023-07-30T01:01:41;100579.97;;;18.34;77.29
28921;BME280;16035;53.594;9.952;2023-07-30T01:03:42;100585.97;;;18.36;77.79
28921;BME280;16035;53.594;9.952;2023-07-30T01:05:44;100589.03;;;18.35;77.45
28921;BME280;16035;53.594;9.952;2023-07-30T01:07:44;100600.38;;;18.33;77.47
28921;BME280;16035;53.594;9.952;2023-07-30T01:09:44;100601.50;;;18.32;77.52
28921;BME280;16035;53.594;9.952;2023-07-30T01:11:45;100610.06;;;18.31;77.55
28921;BME280;16035;53.594;9.952;2023-07-30T01:13:46;100605.69;;;18.30;77.54
28921;BME280;16035;53.594;9.952;2023-07-30T01:15:46;100613.31;;;18.33;77.58
28921;BME280;16035;53.594;9.952;2023-07-30T01:17:47;100607.31;;;18.31;77.63
28921;BME280;16035;53.594;9.952;2023-07-30T01:19:47;100609.56;;;18.29;77.55
28921;BME280;16035;53.594;9.952;2023-07-30T01:21:49;100610.69;;;18.28;77.52
28921;BME280;16035;53.594;9.952;2023-07-30T01:23:50;100614.25;;;18.28;77.50
28921;BME280;16035;53.594;9.952;2023-07-30T01:25:59;100617.34;;;18.27;77.25
28921;BME280;16035;53.594;9.952;2023-07-30T01:28:01;100621.50;;;18.24;77.46
28921;BME280;16035;53.594;9.952;2023-07-30T01:30:08;100617.78;;;18.20;77.44
28921;BME280;16035;53.594;9.952;2023-07-30T01:32:11;100620.84;;;18.18;77.34
28921;BME280;16035;53.594;9.952;2023-07-30T01:34:12;100622.59;;;18.14;77.67
28921;BME280;16035;53.594;9.952;2023-07-30T01:36:15;100620.97;;;18.13;77.69
28921;BME280;16035;53.594;9.952;2023-07-30T01:38:16;100627.59;;;18.12;77.62
28921;BME280;16035;53.594;9.952;2023-07-30T01:40:17;100621.59;;;18.10;77.83
28921;BME280;16035;53.594;9.952;2023-07-30T01:42:17;100620.78;;;18.10;77.83
28921;BME280;16035;53.594;9.952;2023-07-30T01:44:18;100619.47;;;18.07;77.67
28921;BME280;16035;53.594;9.952;2023-07-30T01:46:18;100621.41;;;18.07;77.71
28921;BME280;16035;53.594;9.952;2023-07-30T01:48:18;100622.88;;;18.04;77.61
28921;BME280;16035;53.594;9.952;2023-07-30T01:50:19;100621.72;;;18.05;77.89
28921;BME280;16035;53.594;9.952;2023-07-30T01:52:19;100614.91;;;18.03;77.75
28921;BME280;16035;53.594;9.952;2023-07-30T01:54:19;100609.13;;;18.04;77.87
28921;BME280;16035;53.594;9.952;2023-07-30T01:56:20;100614.28;;;18.06;77.76
28921;BME280;16035;53.594;9.952;2023-07-30T01:58:20;100622.06;;;18.04;77.75
28921;BME280;16035;53.594;9.952;2023-07-30T02:00:20;100615.72;;;18.03;77.77
28921;BME280;16035;53.594;9.952;2023-07-30T02:02:21;100614.91;;;18.03;77.83
28921;BME280;16035;53.594;9.952;2023-07-30T02:04:21;100619.59;;;18.02;78.09
28921;BME280;16035;53.594;9.952;2023-07-30T02:06:22;100608.94;;;18.01;77.61
28921;BME280;16035;53.594;9.952;2023-07-30T02:08:22;100617.19;;;18.01;77.69
28921;BME280;16035;53.594;9.952;2023-07-30T02:10:24;100616.03;;;18.02;77.75
28921;BME280;16035;53.594;9.952;2023-07-30T02:12:24;100610.06;;;18.00;77.71
28921;BME280;16035;53.594;9.952;2023-07-30T02:14:25;100614.72;;;17.99;77.92
28921;BME280;16035;53.594;9.952;2023-07-30T02:16:25;100614.56;;;17.96;77.77
28921;BME280;16035;53.594;9.952;2023-07-30T02:18:25;100618.75;;;17.93;77.94
28921;BME280;16035;53.594;9.952;2023-07-30T02:20:26;100611.94;;;17.90;77.75
28921;BME280;16035;53.594;9.952;2023-07-30T02:22:26;100618.53;;;17.89;77.95
28921;BME280;16035;53.594;9.952;2023-07-30T02:24:26;100620.28;;;17.85;77.48
28921;BME280;16035;53.594;9.952;2023-07-30T02:26:27;100616.25;;;17.83;78.03
28921;BME280;16035;53.594;9.952;2023-07-30T02:28:27;100622.34;;;17.80;78.51
28921;BME280;16035;53.594;9.952;2023-07-30T02:30:28;100627.84;;;17.80;77.96
28921;BME280;16035;53.594;9.952;2023-07-30T02:32:28;100616.38;;;17.78;77.90
28921;BME280;16035;53.594;9.952;2023-07-30T02:34:29;100622.97;;;17.77;77.92
28921;BME280;16035;53.594;9.952;2023-07-30T02:36:29;100625.25;;;17.75;78.00
28921;BME280;16035;53.594;9.952;2023-07-30T02:38:29;100627.19;;;17.74;77.97
28921;BME280;16035;53.594;9.952;2023-07-30T02:40:31;100629.94;;;17.74;78.03
28921;BME280;16035;53.594;9.952;2023-07-30T02:42:31;100623.63;;;17.74;78.38
28921;BME280;16035;53.594;9.952;2023-07-30T02:44:31;100628.56;;;17.72;77.90
28921;BME280;16035;53.594;9.952;2023-07-30T02:46:32;100631.31;;;17.72;77.97
28921;BME280;16035;53.594;9.952;2023-07-30T02:48:32;100635.19;;;17.71;78.08
28921;BME280;16035;53.594;9.952;2023-07-30T02:50:32;100635.81;;;17.67;77.99
28921;BME280;16035;53.594;9.952;2023-07-30T02:52:33;100626.28;;;17.65;78.09
28921;BME280;16035;53.594;9.952;2023-07-30T02:54:33;100633.72;;;17.64;78.18
28921;BME280;16035;53.594;9.952;2023-07-30T02:56:33;100634.81;;;17.63;78.34
28921;BME280;16035;53.594;9.952;2023-07-30T02:58:34;100635.94;;;17.62;78.19
28921;BME280;16035;53.594;9.952;2023-07-30T03:00:35;100634.81;;;17.63;78.11
28921;BME280;16035;53.594;9.952;2023-07-30T03:02:35;100643.03;;;17.63;78.23
28921;BME280;16035;53.594;9.952;2023-07-30T03:04:36;100644.19;;;17.62;78.25
28921;BME280;16035;53.594;9.952;2023-07-30T03:06:36;100642.88;;;17.60;78.30
28921;BME280;16035;53.594;9.952;2023-07-30T03:08:36;100643.69;;;17.60;78.26
28921;BME280;16035;53.594;9.952;2023-07-30T03:10:38;100647.72;;;17.63;78.85
28921;BME280;16035;53.594;9.952;2023-07-30T03:12:39;100648.25;;;17.65;78.37
28921;BME280;16035;53.594;9.952;2023-07-30T03:14:39;100644.69;;;17.64;78.45
28921;BME280;16035;53.594;9.952;2023-07-30T03:16:39;100641.13;;;17.64;78.60
28921;BME280;16035;53.594;9.952;2023-07-30T03:18:40;100646.31;;;17.65;78.38
28921;BME280;16035;53.594;9.952;2023-07-30T03:20:40;100652.13;;;17.64;78.43
28921;BME280;16035;53.594;9.952;2023-07-30T03:22:40;100650.19;;;17.64;78.60
28921;BME280;16035;53.594;9.952;2023-07-30T03:24:41;100655.97;;;17.63;78.60
28921;BME280;16035;53.594;9.952;2023-07-30T03:26:41;100655.16;;;17.62;78.45
28921;BME280;16035;53.594;9.952;2023-07-30T03:28:41;100650.47;;;17.63;78.58
28921;BME280;16035;53.594;9.952;2023-07-30T03:30:42;100655.16;;;17.62;78.76
28921;BME280;16035;53.594;9.952;2023-07-30T03:32:42;100656.28;;;17.61;78.60
28921;BME280;16035;53.594;9.952;2023-07-30T03:34:42;100661.00;;;17.61;78.68
28921;BME280;16035;53.594;9.952;2023-07-30T03:36:43;100653.56;;;17.61;78.53
28921;BME280;16035;53.594;9.952;2023-07-30T03:38:43;100655.81;;;17.59;78.58
28921;BME280;16035;53.594;9.952;2023-07-30T03:40:43;100657.22;;;17.57;78.58
28921;BME280;16035;53.594;9.952;2023-07-30T03:42:43;100652.34;;;17.54;78.54
28921;BME280;16035;53.594;9.952;2023-07-30T03:44:44;100662.53;;;17.53;78.46
28921;BME280;16035;53.594;9.952;2023-07-30T03:46:45;100657.97;;;17.49;78.63
28921;BME280;16035;53.594;9.952;2023-07-30T03:48:46;100658.28;;;17.47;78.69
28921;BME280;16035;53.594;9.952;2023-07-30T03:50:46;100653.41;;;17.44;78.65
28921;BME280;16035;53.594;9.952;2023-07-30T03:52:47;100658.41;;;17.42;78.48
28921;BME280;16035;53.594;9.952;2023-07-30T03:54:47;100661.16;;;17.42;78.41
28921;BME280;16035;53.594;9.952;2023-07-30T03:56:47;100660.13;;;17.38;78.64
28921;BME280;16035;53.594;9.952;2023-07-30T03:58:48;100662.06;;;17.37;78.51
28921;BME280;16035;53.594;9.952;2023-07-30T04:00:48;100668.88;;;17.40;78.65
28921;BME280;16035;53.594;9.952;2023-07-30T04:02:48;100665.91;;;17.36;78.59
28921;BME280;16035;53.594;9.952;2023-07-30T04:04:49;100667.84;;;17.36;78.68
28921;BME280;16035;53.594;9.952;2023-07-30T04:06:50;100673.34;;;17.36;78.78
28921;BME280;16035;53.594;9.952;2023-07-30T04:08:50;100667.56;;;17.37;78.73
28921;BME280;16035;53.594;9.952;2023-07-30T04:10:50;100666.44;;;17.38;78.72
28921;BME280;16035;53.594;9.952;2023-07-30T04:12:51;100670.00;;;17.39;78.62
28921;BME280;16035;53.594;9.952;2023-07-30T04:14:51;100671.13;;;17.38;78.76
28921;BME280;16035;53.594;9.952;2023-07-30T04:16:51;100667.25;;;17.39;78.78
28921;BME280;16035;53.594;9.952;2023-07-30T04:18:52;100664.81;;;17.37;78.69
28921;BME280;16035;53.594;9.952;2023-07-30T04:20:54;100666.44;;;17.38;78.75
28921;BME280;16035;53.594;9.952;2023-07-30T04:22:56;100673.56;;;17.39;78.64
28921;BME280;16035;53.594;9.952;2023-07-30T04:24:57;100664.50;;;17.39;78.75
28921;BME280;16035;53.594;9.952;2023-07-30T04:26:57;100672.75;;;17.39;78.90
28921;BME280;16035;53.594;9.952;2023-07-30T04:28:57;100665.63;;;17.38;78.82
28921;BME280;16035;53.594;9.952;2023-07-30T04:30:58;100671.59;;;17.40;78.64
28921;BME280;16035;53.594;9.952;2023-07-30T04:32:58;100666.13;;;17.40;78.74
28921;BME280;16035;53.594;9.952;2023-07-30T04:34:59;100663.91;;;17.42;78.96
28921;BME280;16035;53.594;9.952;2023-07-30T04:37:00;100666.63;;;17.42;78.84
28921;BME280;16035;53.594;9.952;2023-07-30T04:39:02;100667.94;;;17.44;78.90
28921;BME280;16035;53.594;9.952;2023-07-30T04:41:02;100670.41;;;17.46;78.88
28921;BME280;16035;53.594;9.952;2023-07-30T04:43:02;100672.00;;;17.47;78.93
28921;BME280;16035;53.594;9.952;2023-07-30T04:45:03;100674.44;;;17.49;79.04
28921;BME280;16035;53.594;9.952;2023-07-30T04:47:03;100670.88;;;17.48;79.08
28921;BME280;16035;53.594;9.952;2023-07-30T04:49:04;100672.50;;;17.49;78.95
28921;BME280;16035;53.594;9.952;2023-07-30T04:51:04;100680.75;;;17.49;78.94
28921;BME280;16035;53.594;9.952;2023-07-30T04:53:04;100680.13;;;17.52;79.04
28921;BME280;16035;53.594;9.952;2023-07-30T04:55:05;100676.78;;;17.55;79.12
28921;BME280;16035;53.594;9.952;2023-07-30T04:57:06;100674.84;;;17.56;79.18
28921;BME280;16035;53.594;9.952;2023-07-30T04:59:06;100683.28;;;17.59;79.32
28921;BME280;16035;53.594;9.952;2023-07-30T05:01:07;100690.09;;;17.62;79.15
28921;BME280;16035;53.594;9.952;2023-07-30T05:03:07;100672.97;;;17.65;79.36
28921;BME280;16035;53.594;9.952;2023-07-30T05:05:08;100676.41;;;17.71;79.30
28921;BME280;16035;53.594;9.952;2023-07-30T05:07:08;100677.13;;;17.76;79.18
28921;BME280;16035;53.594;9.952;2023-07-30T05:09:08;100682.84;;;17.80;79.15
28921;BME280;16035;53.594;9.952;2023-07-30T05:11:09;100673.16;;;17.82;79.06
28921;BME280;16035;53.594;9.952;2023-07-30T05:13:09;100673.47;;;17.81;79.18
28921;BME280;16035;53.594;9.952;2023-07-30T05:15:09;100668.78;;;17.81;79.00
28921;BME280;16035;53.594;9.952;2023-07-30T05:17:10;100667.66;;;17.82;79.17
28921;BME280;16035;53.594;9.952;2023-07-30T05:19:10;100669.28;;;17.83;78.97
28921;BME280;16035;53.594;9.952;2023-07-30T05:21:10;100670.91;;;17.84;79.16
28921;BME280;16035;53.594;9.952;2023-07-30T05:23:11;100673.38;;;17.86;79.03
28921;BME280;16035;53.594;9.952;2023-07-30T05:25:11;100678.03;;;17.85;79.12
28921;BME280;16035;53.594;9.952;2023-07-30T05:27:11;100676.72;;;17.83;79.33
28921;BME280;16035;53.594;9.952;2023-07-30T05:29:11;100673.97;;;17.83;79.15
28921;BME280;16035;53.594;9.952;2023-07-30T05:31:12;100676.41;;;17.84;79.34
28921;BME280;16035;53.594;9.952;2023-07-30T05:33:12;100679.16;;;17.84;79.12
28921;BME280;16035;53.594;9.952;2023-07-30T05:35:12;100666.03;;;17.81;79.19
28921;BME280;16035;53.594;9.952;2023-07-30T05:37:13;100673.66;;;17.84;79.38
28921;BME280;16035;53.594;9.952;2023-07-30T05:39:13;100671.41;;;17.86;79.38
28921;BME280;16035;53.594;9.952;2023-07-30T05:41:13;100672.44;;;17.90;79.34
28921;BME280;16035;53.594;9.952;2023-07-30T05:43:14;100676.47;;;17.93;79.35
28921;BME280;16035;53.594;9.952;2023-07-30T05:45:14;100675.34;;;17.94;79.37
28921;BME280;16035;53.594;9.952;2023-07-30T05:47:14;100671.16;;;17.97;79.17
28921;BME280;16035;53.594;9.952;2023-07-30T05:49:15;100675.84;;;17.96;79.32
28921;BME280;16035;53.594;9.952;2023-07-30T05:51:15;100671.16;;;17.97;79.26
28921;BME280;16035;53.594;9.952;2023-07-30T05:53:15;100666.66;;;18.01;79.43
28921;BME280;16035;53.594;9.952;2023-07-30T05:55:16;100669.09;;;18.02;79.14
28921;BME280;16035;53.594;9.952;2023-07-30T05:57:16;100670.72;;;18.03;79.05
28921;BME280;16035;53.594;9.952;2023-07-30T05:59:16;100673.78;;;18.02;79.16
28921;BME280;16035;53.594;9.952;2023-07-30T06:01:17;100669.63;;;18.04;79.10
28921;BME280;16035;53.594;9.952;2023-07-30T06:03:18;100686.13;;;18.04;79.06
28921;BME280;16035;53.594;9.952;2023-07-30T06:05:18;100673.97;;;18.05;79.09
28921;BME280;16035;53.594;9.952;2023-07-30T06:07:18;100673.97;;;18.05;79.04
28921;BME280;16035;53.594;9.952;2023-07-30T06:09:19;100677.06;;;18.04;79.07
28921;BME280;16035;53.594;9.952;2023-07-30T06:11:19;100681.41;;;18.05;79.14
28921;BME280;16035;53.594;9.952;2023-07-30T06:13:20;100682.72;;;18.07;79.19
28921;BME280;16035;53.594;9.952;2023-07-30T06:15:20;100692.28;;;18.10;79.22
28921;BME280;16035;53.594;9.952;2023-07-30T06:17:20;100686.47;;;18.11;79.18
28921;BME280;16035;53.594;9.952;2023-07-30T06:19:21;100692.16;;;18.15;79.05
28921;BME280;16035;53.594;9.952;2023-07-30T06:21:21;100681.34;;;18.18;79.08
28921;BME280;16035;53.594;9.952;2023-07-30T06:23:21;100685.91;;;18.23;79.23
28921;BME280;16035;53.594;9.952;2023-07-30T06:25:22;100691.91;;;18.25;79.46
28921;BME280;16035;53.594;9.952;2023-07-30T06:27:22;100690.97;;;18.30;79.11
28921;BME280;16035;53.594;9.952;2023-07-30T06:29:22;100684.22;;;18.36;79.00
28921;BME280;16035;53.594;9.952;2023-07-30T06:31:23;100685.50;;;18.38;79.01
28921;BME280;16035;53.594;9.952;2023-07-30T06:33:23;100686.50;;;18.42;79.22
28921;BME280;16035;53.594;9.952;2023-07-30T06:35:23;100683.81;;;18.51;79.17
28921;BME280;16035;53.594;9.952;2023-07-30T06:37:24;100685.94;;;18.54;79.21
28921;BME280;16035;53.594;9.952;2023-07-30T06:39:24;100682.22;;;18.59;79.08
28921;BME280;16035;53.594;9.952;2023-07-30T06:41:24;100680.66;;;18.66;78.96
28921;BME280;16035;53.594;9.952;2023-07-30T06:43:25;100694.59;;;18.70;79.01
28921;BME280;16035;53.594;9.952;2023-07-30T06:45:25;100689.09;;;18.70;78.43
28921;BME280;16035;53.594;9.952;2023-07-30T06:47:26;100680.53;;;18.72;78.66
28921;BME280;16035;53.594;9.952;2023-07-30T06:49:26;100684.28;;;18.76;79.45
28921;BME280;16035;53.594;9.952;2023-07-30T06:51:27;100690.66;;;18.85;78.67
28921;BME280;16035;53.594;9.952;2023-07-30T06:53:27;100678.97;;;18.88;79.06
28921;BME280;16035;53.594;9.952;2023-07-30T06:55:27;100687.59;;;18.95;78.88
28921;BME280;16035;53.594;9.952;2023-07-30T06:57:28;100679.00;;;18.97;78.67
28921;BME280;16035;53.594;9.952;2023-07-30T06:59:29;100683.41;;;18.98;78.55
28921;BME280;16035;53.594;9.952;2023-07-30T07:01:29;100686.66;;;19.00;78.49
28921;BME280;16035;53.594;9.952;2023-07-30T07:03:30;100687.97;;;19.02;78.54
28921;BME280;16035;53.594;9.952;2023-07-30T07:05:30;100689.41;;;19.00;78.42
28921;BME280;16035;53.594;9.952;2023-07-30T07:07:30;100691.34;;;18.99;78.32
28921;BME280;16035;53.594;9.952;2023-07-30T07:09:30;100687.44;;;19.00;78.41
28921;BME280;16035;53.594;9.952;2023-07-30T07:11:31;100692.97;;;19.00;78.22
28921;BME280;16035;53.594;9.952;2023-07-30T07:13:31;100689.44;;;19.08;78.52
28921;BME280;16035;53.594;9.952;2023-07-30T07:15:32;100694.59;;;19.10;78.55
28921;BME280;16035;53.594;9.952;2023-07-30T07:17:32;100690.22;;;19.09;78.13
28921;BME280;16035;53.594;9.952;2023-07-30T07:19:32;100698.31;;;19.05;78.27
28921;BME280;16035;53.594;9.952;2023-07-30T07:21:36;100700.44;;;19.08;78.21
28921;BME280;16035;53.594;9.952;2023-07-30T07:23:36;100694.31;;;19.11;78.22
28921;BME280;16035;53.594;9.952;2023-07-30T07:25:37;100701.91;;;19.14;78.19
28921;BME280;16035;53.594;9.952;2023-07-30T07:27:37;100699.34;;;19.18;78.37
28921;BME280;16035;53.594;9.952;2023-07-30T07:29:38;100702.25;;;19.22;78.50
28921;BME280;16035;53.594;9.952;2023-07-30T07:31:38;100702.75;;;19.24;78.12
28921;BME280;16035;53.594;9.952;2023-07-30T07:33:39;100703.25;;;19.26;78.25
28921;BME280;16035;53.594;9.952;2023-07-30T07:35:40;100705.53;;;19.32;78.25
28921;BME280;16035;53.594;9.952;2023-07-30T07:37:40;100701.66;;;19.42;78.38
28921;BME280;16035;53.594;9.952;2023-07-30T07:39:41;100698.44;;;19.49;78.21
28921;BME280;16035;53.594;9.952;2023-07-30T07:41:41;100704.13;;;19.52;78.08
28921;BME280;16035;53.594;9.952;2023-07-30T07:43:48;100701.66;;;19.51;77.62
28921;BME280;16035;53.594;9.952;2023-07-30T07:45:49;100708.16;;;19.46;77.85
28921;BME280;16035;53.594;9.952;2023-07-30T07:47:49;100703.59;;;19.41;77.55
28921;BME280;16035;53.594;9.952;2023-07-30T07:49:49;100706.03;;;19.34;77.46
28921;BME280;16035;53.594;9.952;2023-07-30T07:51:50;100705.53;;;19.32;77.53
28921;BME280;16035;53.594;9.952;2023-07-30T07:53:50;100706.03;;;19.34;77.92
28921;BME280;16035;53.594;9.952;2023-07-30T07:55:50;100697.09;;;19.37;77.72
28921;BME280;16035;53.594;9.952;2023-07-30T07:57:51;100694.38;;;19.46;77.80
28921;BME280;16035;53.594;9.952;2023-07-30T07:59:51;100700.69;;;19.55;77.67
28921;BME280;16035;53.594;9.952;2023-07-30T08:01:51;100692.66;;;19.76;77.88
28921;BME280;16035;53.594;9.952;2023-07-30T08:03:52;100698.50;;;20.09;77.88
28921;BME280;16035;53.594;9.952;2023-07-30T08:05:52;100687.25;;;20.32;77.62
28921;BME280;16035;53.594;9.952;2023-07-30T08:07:53;100689.47;;;20.47;77.02
28921;BME280;16035;53.594;9.952;2023-07-30T08:09:53;100690.44;;;20.68;76.97
28921;BME280;16035;53.594;9.952;2023-07-30T08:11:54;100682.44;;;20.76;76.57
28921;BME280;16035;53.594;9.952;2023-07-30T08:13:55;100686.91;;;20.89;76.60
28921;BME280;16035;53.594;9.952;2023-07-30T08:15:55;100684.53;;;21.17;76.79
28921;BME280;16035;53.594;9.952;2023-07-30T08:17:55;100679.69;;;21.43;76.51
28921;BME280;16035;53.594;9.952;2023-07-30T08:19:56;100687.50;;;21.62;75.86
28921;BME280;16035;53.594;9.952;2023-07-30T08:21:57;100685.94;;;21.74;75.00
28921;BME280;16035;53.594;9.952;2023-07-30T08:23:58;100685.00;;;21.69;74.31
28921;BME280;16035;53.594;9.952;2023-07-30T08:25:59;100680.19;;;21.79;74.42
28921;BME280;16035;53.594;9.952;2023-07-30T08:27:59;100680.97;;;21.67;74.40
28921;BME280;16035;53.594;9.952;2023-07-30T08:30:00;100678.06;;;21.63;74.41
28921;BME280;16035;53.594;9.952;2023-07-30T08:32:00;100681.16;;;21.62;74.33
28921;BME280;16035;53.594;9.952;2023-07-30T08:34:01;100679.81;;;21.68;74.38
28921;BME280;16035;53.594;9.952;2023-07-30T08:36:01;100674.66;;;21.79;74.26
28921;BME280;16035;53.594;9.952;2023-07-30T08:38:02;100684.63;;;21.80;73.87
28921;BME280;16035;53.594;9.952;2023-07-30T08:40:02;100676.56;;;21.87;73.95
28921;BME280;16035;53.594;9.952;2023-07-30T08:42:03;100675.00;;;21.98;73.49
28921;BME280;16035;53.594;9.952;2023-07-30T08:44:04;100680.13;;;22.08;73.24
28921;BME280;16035;53.594;9.952;2023-07-30T08:46:04;100678.44;;;22.16;73.30
28921;BME280;16035;53.594;9.952;2023-07-30T08:48:05;100677.06;;;22.22;72.70
28921;BME280;16035;53.594;9.952;2023-07-30T08:50:05;100676.31;;;22.34;72.21
28921;BME280;16035;53.594;9.952;2023-07-30T08:52:09;100674.13;;;22.39;72.43
28921;BME280;16035;53.594;9.952;2023-07-30T08:54:12;100686.53;;;22.21;71.49
28921;BME280;16035;53.594;9.952;2023-07-30T08:56:12;100682.63;;;22.01;71.46
28921;BME280;16035;53.594;9.952;2023-07-30T08:58:13;100693.28;;;21.90;71.91
28921;BME280;16035;53.594;9.952;2023-07-30T09:00:17;100697.81;;;21.95;72.30
28921;BME280;16035;53.594;9.952;2023-07-30T09:02:50;100683.84;;;21.91;71.61
28921;BME280;16035;53.594;9.952;2023-07-30T09:04:53;100685.41;;;22.01;71.87
28921;BME280;16035;53.594;9.952;2023-07-30T09:06:54;100688.97;;;22.23;71.82
28921;BME280;16035;53.594;9.952;2023-07-30T09:08:54;100687.81;;;22.24;71.48
28921;BME280;16035;53.594;9.952;2023-07-30T09:10:55;100689.84;;;22.14;70.89
28921;BME280;16035;53.594;9.952;2023-07-30T09:12:56;100690.25;;;22.04;70.88
28921;BME280;16035;53.594;9.952;2023-07-30T09:15:02;100690.59;;;22.03;70.87
28921;BME280;16035;53.594;9.952;2023-07-30T09:17:03;100692.06;;;22.00;70.78
28921;BME280;16035;53.594;9.952;2023-07-30T09:19:05;100696.47;;;22.01;70.25
28921;BME280;16035;53.594;9.952;2023-07-30T09:21:06;100697.59;;;22.00;70.25
28921;BME280;16035;53.594;9.952;2023-07-30T09:23:07;100692.16;;;22.12;70.15
28921;BME280;16035;53.594;9.952;2023-07-30T09:25:08;100695.75;;;22.46;69.91
28921;BME280;16035;53.594;9.952;2023-07-30T09:27:09;100698.16;;;22.48;69.21
28921;BME280;16035;53.594;9.952;2023-07-30T09:29:09;100689.09;;;22.84;70.12
28921;BME280;16035;53.594;9.952;2023-07-30T09:31:10;100691.91;;;23.20;69.57
28921;BME280;16035;53.594;9.952;2023-07-30T09:33:18;100685.03;;;23.55;68.34
28921;BME280;16035;53.594;9.952;2023-07-30T09:35:19;100689.78;;;23.66;67.20
28921;BME280;16035;53.594;9.952;2023-07-30T09:37:19;100688.63;;;23.55;66.70
28921;BME280;16035;53.594;9.952;2023-07-30T09:39:22;100703.91;;;23.25;66.42
28921;BME280;16035;53.594;9.952;2023-07-30T09:41:23;100704.84;;;22.92;67.47
28921;BME280;16035;53.594;9.952;2023-07-30T09:43:28;100704.06;;;22.58;66.73
28921;BME280;16035;53.594;9.952;2023-07-30T09:45:33;100712.19;;;22.30;67.21
28921;BME280;16035;53.594;9.952;2023-07-30T09:47:37;100713.31;;;22.08;67.53
28921;BME280;16035;53.594;9.952;2023-07-30T09:49:38;100713.59;;;21.94;67.37
28921;BME280;16035;53.594;9.952;2023-07-30T09:51:38;100713.81;;;21.89;67.88
28921;BME280;16035;53.594;9.952;2023-07-30T09:53:41;100712.00;;;21.93;68.09
28921;BME280;16035;53.594;9.952;2023-07-30T09:55:42;100705.09;;;22.00;68.31
28921;BME280;16035;53.594;9.952;2023-07-30T09:57:43;100720.53;;;22.01;67.85
28921;BME280;16035;53.594;9.952;2023-07-30T09:59:43;100723.72;;;21.90;67.34
28921;BME280;16035;53.594;9.952;2023-07-30T10:01:48;100726.97;;;21.92;67.41
28921;BME280;16035;53.594;9.952;2023-07-30T10:03:56;100721.06;;;22.36;67.45
28921;BME280;16035;53.594;9.952;2023-07-30T10:06:03;100726.66;;;22.93;67.13
28921;BME280;16035;53.594;9.952;2023-07-30T10:08:09;100726.31;;;23.44;65.54
28921;BME280;16035;53.594;9.952;2023-07-30T10:10:11;100718.91;;;23.73;64.95
28921;BME280;16035;53.594;9.952;2023-07-30T10:12:15;100728.13;;;23.89;63.51
28921;BME280;16035;53.594;9.952;2023-07-30T10:14:17;100721.88;;;24.20;62.92
28921;BME280;16035;53.594;9.952;2023-07-30T10:16:25;100722.47;;;24.13;62.72
28921;BME280;16035;53.594;9.952;2023-07-30T10:18:33;100722.03;;;23.71;61.28
28921;BME280;16035;53.594;9.952;2023-07-30T10:20:51;100738.34;;;23.24;61.46
28921;BME280;16035;53.594;9.952;2023-07-30T10:22:57;100739.16;;;23.00;62.48
28921;BME280;16035;53.594;9.952;2023-07-30T10:25:00;100745.94;;;23.02;62.89
28921;BME280;16035;53.594;9.952;2023-07-30T10:27:23;100740.41;;;23.02;62.60
28921;BME280;16035;53.594;9.952;2023-07-30T10:29:34;100740.97;;;22.95;62.61
28921;BME280;16035;53.594;9.952;2023-07-30T10:32:03;100736.88;;;22.81;62.49
28921;BME280;16035;53.594;9.952;2023-07-30T10:34:03;100745.84;;;22.65;62.18